sensor_id;sensor_type;location;lat;lon;timestamp;P1;durP1;ratioP1;P2;durP2;ratioP2
58874;SDS011;44652;49.040;12.126;2024-02-21T06:02:03;2.95;;;1.95;;
58874;SDS011;44652;49.040;12.126;2024-02-21T06:04:31;6.15;;;1.70;;
58874;SDS011;44652;49.040;12.126;2024-02-21T06:06:58;2.13;;;1.58;;
58874;SDS011;44652;49.040;12.126;2024-02-21T06:09:24;1.67;;;1.27;;
58874;SDS011;44652;49.040;12.126;2024-02-21T06:11:51;3.35;;;1.92;;
58874;SDS011;44652;49.040;12.126;2024-02-21T06:14:18;4.82;;;1.52;;
58874;SDS011;44652;49.040;12.126;2024-02-21T06:16:45;4.18;;;1.67;;
58874;SDS011;44652;49.040;12.126;2024-02-21T06:19:12;6.78;;;1.90;;
58874;SDS011;44652;49.040;12.126;2024-02-21T06:21:39;2.60;;;1.55;;
58874;SDS011;44652;49.040;12.126;2024-02-21T06:24:06;2.85;;;1.42;;
58874;SDS011;44652;49.040;12.126;2024-02-21T06:26:33;3.47;;;1.50;;
58874;SDS011;44652;49.040;12.126;2024-02-21T06:29:00;5.05;;;1.73;;
58874;SDS011;44652;49.040;12.126;2024-02-21T06:33:55;2.05;;;1.25;;
58874;SDS011;44652;49.040;12.126;2024-02-21T06:36:22;1.95;;;1.35;;
58874;SDS011;44652;49.040;12.126;2024-02-21T06:38:52;1.80;;;1.20;;
58874;SDS011;44652;49.040;12.126;2024-02-21T06:41:19;1.92;;;1.27;;
58874;SDS011;44652;49.040;12.126;2024-02-21T06:43:46;4.28;;;1.92;;
58874;SDS011;44652;49.040;12.126;2024-02-21T06:46:23;1.52;;;1.38;;
58874;SDS011;44652;49.040;12.126;2024-02-21T06:48:51;9.98;;;2.00;;
58874;SDS011;44652;49.040;12.126;2024-02-21T06:51:18;2.72;;;1.50;;
58874;SDS011;44652;49.040;12.126;2024-02-21T06:53:45;2.63;;;1.25;;
58874;SDS011;44652;49.040;12.126;2024-02-21T06:56:11;2.45;;;1.10;;
58874;SDS011;44652;49.040;12.126;2024-02-21T06:58:38;2.55;;;1.25;;
58874;SDS011;44652;49.040;12.126;2024-02-21T07:01:06;5.90;;;2.33;;
58874;SDS011;44652;49.040;12.126;2024-02-21T07:03:33;3.47;;;2.03;;
58874;SDS011;44652;49.040;12.126;2024-02-21T07:06:00;5.40;;;2.13;;
58874;SDS011;44652;49.040;12.126;2024-02-21T07:08:27;5.22;;;1.45;;
58874;SDS011;44652;49.040;12.126;2024-02-21T07:10:54;5.60;;;1.60;;
58874;SDS011;44652;49.040;12.126;2024-02-21T07:13:21;2.65;;;1.27;;
58874;SDS011;44652;49.040;12.126;2024-02-21T07:15:49;6.50;;;2.22;;
58874;SDS011;44652;49.040;12.126;2024-02-21T07:18:16;2.30;;;1.35;;
58874;SDS011;44652;49.040;12.126;2024-02-21T07:20:46;2.95;;;1.23;;
58874;SDS011;44652;49.040;12.126;2024-02-21T07:23:13;2.55;;;1.83;;
58874;SDS011;44652;49.040;12.126;2024-02-21T07:25:40;3.83;;;2.15;;
58874;SDS011;44652;49.040;12.126;2024-02-21T07:28:06;6.50;;;2.05;;
58874;SDS011;44652;49.040;12.126;2024-02-21T07:30:33;10.48;;;2.10;;
58874;SDS011;44652;49.040;12.126;2024-02-21T07:33:00;4.70;;;2.45;;
58874;SDS011;44652;49.040;12.126;2024-02-21T07:35:27;5.32;;;2.65;;
58874;SDS011;44652;49.040;12.126;2024-02-21T07:37:54;16.15;;;2.13;;
58874;SDS011;44652;49.040;12.126;2024-02-21T07:40:21;5.18;;;2.17;;
58874;SDS011;44652;49.040;12.126;2024-02-21T07:42:48;4.22;;;1.40;;
58874;SDS011;44652;49.040;12.126;2024-02-21T07:45:17;8.43;;;1.48;;
58874;SDS011;44652;49.040;12.126;2024-02-21T07:47:50;5.15;;;1.42;;
58874;SDS011;44652;49.040;12.126;2024-02-21T07:50:17;4.45;;;1.98;;
58874;SDS011;44652;49.040;12.126;2024-02-21T07:52:44;4.47;;;1.88;;
58874;SDS011;44652;49.040;12.126;2024-02-21T07:55:11;9.40;;;1.58;;
58874;SDS011;44652;49.040;12.126;2024-02-21T07:57:38;2.45;;;1.55;;
58874;SDS011;44652;49.040;12.126;2024-02-21T08:00:05;3.90;;;2.08;;
58874;SDS011;44652;49.040;12.126;2024-02-21T08:02:40;5.55;;;2.28;;
58874;SDS011;44652;49.040;12.126;2024-02-21T08:05:09;4.15;;;1.83;;
58874;SDS011;44652;49.040;12.126;2024-02-21T08:07:35;3.08;;;1.95;;
58874;SDS011;44652;49.040;12.126;2024-02-21T08:10:02;8.65;;;2.10;;
58874;SDS011;44652;49.040;12.126;2024-02-21T08:12:29;4.43;;;1.85;;
58874;SDS011;44652;49.040;12.126;2024-02-21T08:14:56;2.80;;;1.15;;
58874;SDS011;44652;49.040;12.126;2024-02-21T08:17:23;3.78;;;1.23;;
58874;SDS011;44652;49.040;12.126;2024-02-21T08:19:49;4.22;;;2.53;;
58874;SDS011;44652;49.040;12.126;2024-02-21T08:22:16;3.17;;;2.13;;
58874;SDS011;44652;49.040;12.126;2024-02-21T08:24:43;3.08;;;1.60;;
58874;SDS011;44652;49.040;12.126;2024-02-21T08:27:10;3.97;;;1.30;;
58874;SDS011;44652;49.040;12.126;2024-02-21T08:29:37;2.72;;;1.75;;
58874;SDS011;44652;49.040;12.126;2024-02-21T08:34:52;2.08;;;1.42;;
58874;SDS011;44652;49.040;12.126;2024-02-21T08:37:19;2.38;;;1.05;;
58874;SDS011;44652;49.040;12.126;2024-02-21T08:39:47;4.25;;;1.85;;
58874;SDS011;44652;49.040;12.126;2024-02-21T08:42:14;4.15;;;1.83;;
58874;SDS011;44652;49.040;12.126;2024-02-21T08:44:41;2.90;;;1.80;;
58874;SDS011;44652;49.040;12.126;2024-02-21T08:47:09;6.35;;;1.73;;
58874;SDS011;44652;49.040;12.126;2024-02-21T08:49:37;3.75;;;1.67;;
58874;SDS011;44652;49.040;12.126;2024-02-21T08:52:06;7.47;;;1.43;;
58874;SDS011;44652;49.040;12.126;2024-02-21T08:54:33;7.75;;;1.58;;
58874;SDS011;44652;49.040;12.126;2024-02-21T08:57:00;5.38;;;1.92;;
58874;SDS011;44652;49.040;12.126;2024-02-21T08:59:27;4.05;;;1.60;;
58874;SDS011;44652;49.040;12.126;2024-02-21T09:01:54;1.83;;;1.10;;
58874;SDS011;44652;49.040;12.126;2024-02-21T09:04:20;2.80;;;1.30;;
58874;SDS011;44652;49.040;12.126;2024-02-21T09:06:47;13.48;;;1.67;;
58874;SDS011;44652;49.040;12.126;2024-02-21T09:09:14;2.35;;;1.35;;
58874;SDS011;44652;49.040;12.126;2024-02-21T09:11:41;5.45;;;1.80;;
58874;SDS011;44652;49.040;12.126;2024-02-21T09:14:08;3.53;;;1.20;;
58874;SDS011;44652;49.040;12.126;2024-02-21T09:16:35;3.10;;;1.45;;
58874;SDS011;44652;49.040;12.126;2024-02-21T09:19:01;2.35;;;1.30;;
58874;SDS011;44652;49.040;12.126;2024-02-21T09:21:28;4.45;;;2.13;;
58874;SDS011;44652;49.040;12.126;2024-02-21T09:23:55;3.15;;;1.98;;
58874;SDS011;44652;49.040;12.126;2024-02-21T09:26:25;8.63;;;1.80;;
58874;SDS011;44652;49.040;12.126;2024-02-21T09:28:53;3.03;;;1.35;;
58874;SDS011;44652;49.040;12.126;2024-02-21T09:31:20;2.58;;;1.23;;
58874;SDS011;44652;49.040;12.126;2024-02-21T09:33:47;3.53;;;1.50;;
58874;SDS011;44652;49.040;12.126;2024-02-21T09:36:14;5.82;;;1.48;;
58874;SDS011;44652;49.040;12.126;2024-02-21T09:38:41;4.80;;;1.58;;
58874;SDS011;44652;49.040;12.126;2024-02-21T09:41:17;4.00;;;1.65;;
58874;SDS011;44652;49.040;12.126;2024-02-21T09:43:52;2.92;;;1.30;;
58874;SDS011;44652;49.040;12.126;2024-02-21T09:46:24;5.45;;;1.80;;
58874;SDS011;44652;49.040;12.126;2024-02-21T09:54:34;1.60;;;1.25;;
58874;SDS011;44652;49.040;12.126;2024-02-21T09:57:04;6.45;;;1.50;;
58874;SDS011;44652;49.040;12.126;2024-02-21T09:59:32;1.70;;;0.93;;
58874;SDS011;44652;49.040;12.126;2024-02-21T10:01:59;4.03;;;0.95;;
58874;SDS011;44652;49.040;12.126;2024-02-21T10:04:27;1.63;;;1.10;;
58874;SDS011;44652;49.040;12.126;2024-02-21T10:06:54;4.38;;;1.20;;
58874;SDS011;44652;49.040;12.126;2024-02-21T10:09:22;6.03;;;1.55;;
58874;SDS011;44652;49.040;12.126;2024-02-21T10:11:50;7.97;;;2.55;;
58874;SDS011;44652;49.040;12.126;2024-02-21T10:14:18;2.22;;;1.25;;
58874;SDS011;44652;49.040;12.126;2024-02-21T10:16:48;4.10;;;1.02;;
58874;SDS011;44652;49.040;12.126;2024-02-21T10:19:22;1.13;;;0.88;;
58874;SDS011;44652;49.040;12.126;2024-02-21T10:24:31;6.75;;;1.52;;
58874;SDS011;44652;49.040;12.126;2024-02-21T10:26:59;5.20;;;1.10;;
58874;SDS011;44652;49.040;12.126;2024-02-21T10:29:30;8.00;;;1.70;;
58874;SDS011;44652;49.040;12.126;2024-02-21T10:32:07;3.53;;;1.65;;
58874;SDS011;44652;49.040;12.126;2024-02-21T10:34:35;7.25;;;1.65;;
58874;SDS011;44652;49.040;12.126;2024-02-21T10:37:04;2.72;;;1.27;;
58874;SDS011;44652;49.040;12.126;2024-02-21T10:39:32;6.57;;;1.20;;
58874;SDS011;44652;49.040;12.126;2024-02-21T10:42:01;3.10;;;1.30;;
58874;SDS011;44652;49.040;12.126;2024-02-21T10:44:33;2.42;;;0.90;;
58874;SDS011;44652;49.040;12.126;2024-02-21T10:47:01;0.93;;;0.80;;
58874;SDS011;44652;49.040;12.126;2024-02-21T10:49:36;2.15;;;0.98;;
58874;SDS011;44652;49.040;12.126;2024-02-21T10:52:08;4.28;;;1.25;;
58874;SDS011;44652;49.040;12.126;2024-02-21T10:54:39;3.67;;;0.82;;
58874;SDS011;44652;49.040;12.126;2024-02-21T10:57:09;4.68;;;1.20;;
58874;SDS011;44652;49.040;12.126;2024-02-21T10:59:39;6.82;;;1.10;;
58874;SDS011;44652;49.040;12.126;2024-02-21T11:02:06;2.53;;;1.15;;
58874;SDS011;44652;49.040;12.126;2024-02-21T11:04:33;2.20;;;0.80;;
58874;SDS011;44652;49.040;12.126;2024-02-21T11:07:05;4.20;;;1.27;;
58874;SDS011;44652;49.040;12.126;2024-02-21T11:09:37;4.15;;;1.25;;
58874;SDS011;44652;49.040;12.126;2024-02-21T11:12:05;4.50;;;1.20;;
58874;SDS011;44652;49.040;12.126;2024-02-21T11:14:33;3.17;;;1.00;;
58874;SDS011;44652;49.040;12.126;2024-02-21T11:17:13;2.45;;;0.98;;
58874;SDS011;44652;49.040;12.126;2024-02-21T11:19:42;0.95;;;0.50;;
58874;SDS011;44652;49.040;12.126;2024-02-21T11:22:15;1.42;;;0.80;;
58874;SDS011;44652;49.040;12.126;2024-02-21T11:24:43;6.35;;;1.35;;
58874;SDS011;44652;49.040;12.126;2024-02-21T11:29:43;3.45;;;1.05;;
58874;SDS011;44652;49.040;12.126;2024-02-21T11:32:11;2.83;;;0.90;;
58874;SDS011;44652;49.040;12.126;2024-02-21T11:34:41;3.20;;;0.90;;
58874;SDS011;44652;49.040;12.126;2024-02-21T11:37:19;1.50;;;0.90;;
58874;SDS011;44652;49.040;12.126;2024-02-21T11:39:45;3.33;;;1.35;;
58874;SDS011;44652;49.040;12.126;2024-02-21T11:42:13;1.52;;;0.60;;
58874;SDS011;44652;49.040;12.126;2024-02-21T11:44:40;2.60;;;0.90;;
58874;SDS011;44652;49.040;12.126;2024-02-21T11:47:08;5.15;;;1.40;;
58874;SDS011;44652;49.040;12.126;2024-02-21T11:49:42;2.97;;;0.88;;
58874;SDS011;44652;49.040;12.126;2024-02-21T11:52:13;2.60;;;1.00;;
58874;SDS011;44652;49.040;12.126;2024-02-21T11:54:42;4.55;;;1.52;;
58874;SDS011;44652;49.040;12.126;2024-02-21T11:57:09;3.08;;;1.23;;
58874;SDS011;44652;49.040;12.126;2024-02-21T11:59:39;5.85;;;1.58;;
58874;SDS011;44652;49.040;12.126;2024-02-21T12:02:06;3.35;;;0.70;;
58874;SDS011;44652;49.040;12.126;2024-02-21T12:04:33;1.80;;;0.50;;
58874;SDS011;44652;49.040;12.126;2024-02-21T12:07:01;1.80;;;0.80;;
58874;SDS011;44652;49.040;12.126;2024-02-21T12:09:30;2.42;;;0.75;;
58874;SDS011;44652;49.040;12.126;2024-02-21T12:12:00;4.18;;;1.05;;
58874;SDS011;44652;49.040;12.126;2024-02-21T12:14:34;1.27;;;0.77;;
58874;SDS011;44652;49.040;12.126;2024-02-21T12:17:02;2.13;;;0.90;;
58874;SDS011;44652;49.040;12.126;2024-02-21T12:19:33;5.20;;;0.80;;
58874;SDS011;44652;49.040;12.126;2024-02-21T12:22:00;1.13;;;0.70;;
58874;SDS011;44652;49.040;12.126;2024-02-21T12:24:28;1.30;;;0.60;;
58874;SDS011;44652;49.040;12.126;2024-02-21T12:26:56;1.80;;;0.90;;
58874;SDS011;44652;49.040;12.126;2024-02-21T12:29:25;1.08;;;0.70;;
58874;SDS011;44652;49.040;12.126;2024-02-21T12:31:52;3.58;;;0.85;;
58874;SDS011;44652;49.040;12.126;2024-02-21T12:37:03;1.73;;;0.60;;
58874;SDS011;44652;49.040;12.126;2024-02-21T12:39:30;2.10;;;0.70;;
58874;SDS011;44652;49.040;12.126;2024-02-21T12:41:58;1.75;;;0.77;;
58874;SDS011;44652;49.040;12.126;2024-02-21T12:44:25;2.10;;;0.70;;
58874;SDS011;44652;49.040;12.126;2024-02-21T12:46:52;5.07;;;0.98;;
58874;SDS011;44652;49.040;12.126;2024-02-21T12:49:21;2.65;;;0.40;;
58874;SDS011;44652;49.040;12.126;2024-02-21T12:51:48;5.68;;;0.90;;
58874;SDS011;44652;49.040;12.126;2024-02-21T12:54:15;4.05;;;0.77;;
58874;SDS011;44652;49.040;12.126;2024-02-21T12:56:42;4.55;;;1.13;;
58874;SDS011;44652;49.040;12.126;2024-02-21T12:59:09;1.80;;;0.80;;
58874;SDS011;44652;49.040;12.126;2024-02-21T13:01:36;0.88;;;0.70;;
58874;SDS011;44652;49.040;12.126;2024-02-21T13:04:04;1.20;;;0.63;;
58874;SDS011;44652;49.040;12.126;2024-02-21T13:06:38;2.95;;;0.70;;
58874;SDS011;44652;49.040;12.126;2024-02-21T13:09:13;1.55;;;0.68;;
58874;SDS011;44652;49.040;12.126;2024-02-21T13:11:40;4.70;;;0.70;;
58874;SDS011;44652;49.040;12.126;2024-02-21T13:14:08;2.42;;;0.70;;
58874;SDS011;44652;49.040;12.126;2024-02-21T13:16:34;3.30;;;0.98;;
58874;SDS011;44652;49.040;12.126;2024-02-21T13:19:08;0.80;;;0.60;;
58874;SDS011;44652;49.040;12.126;2024-02-21T13:21:35;1.35;;;0.60;;
58874;SDS011;44652;49.040;12.126;2024-02-21T13:24:02;3.22;;;0.82;;
58874;SDS011;44652;49.040;12.126;2024-02-21T13:26:30;0.50;;;0.50;;
58874;SDS011;44652;49.040;12.126;2024-02-21T13:28:57;1.73;;;0.73;;
58874;SDS011;44652;49.040;12.126;2024-02-21T13:31:24;1.30;;;0.60;;
58874;SDS011;44652;49.040;12.126;2024-02-21T13:33:52;2.45;;;0.70;;
58874;SDS011;44652;49.040;12.126;2024-02-21T13:36:19;1.92;;;0.52;;
58874;SDS011;44652;49.040;12.126;2024-02-21T13:38:46;2.58;;;0.57;;
58874;SDS011;44652;49.040;12.126;2024-02-21T13:41:13;2.00;;;0.60;;
58874;SDS011;44652;49.040;12.126;2024-02-21T13:43:40;3.60;;;0.60;;
58874;SDS011;44652;49.040;12.126;2024-02-21T13:46:07;2.90;;;0.80;;
58874;SDS011;44652;49.040;12.126;2024-02-21T13:48:36;4.20;;;0.98;;
58874;SDS011;44652;49.040;12.126;2024-02-21T13:51:04;1.50;;;0.75;;
58874;SDS011;44652;49.040;12.126;2024-02-21T13:53:33;1.63;;;0.80;;
58874;SDS011;44652;49.040;12.126;2024-02-21T13:56:01;3.38;;;0.60;;
58874;SDS011;44652;49.040;12.126;2024-02-21T13:58:28;0.85;;;0.50;;
58874;SDS011;44652;49.040;12.126;2024-02-21T14:00:54;0.90;;;0.50;;
58874;SDS011;44652;49.040;12.126;2024-02-21T14:05:49;2.05;;;0.70;;
58874;SDS011;44652;49.040;12.126;2024-02-21T14:08:16;1.45;;;0.60;;
58874;SDS011;44652;49.040;12.126;2024-02-21T14:10:43;0.82;;;0.60;;
58874;SDS011;44652;49.040;12.126;2024-02-21T14:13:10;1.85;;;0.60;;
58874;SDS011;44652;49.040;12.126;2024-02-21T14:15:38;2.90;;;0.90;;
58874;SDS011;44652;49.040;12.126;2024-02-21T14:18:07;2.50;;;0.88;;
58874;SDS011;44652;49.040;12.126;2024-02-21T14:20:36;1.23;;;0.63;;
58874;SDS011;44652;49.040;12.126;2024-02-21T14:23:03;3.10;;;1.40;;
58874;SDS011;44652;49.040;12.126;2024-02-21T14:25:31;1.67;;;0.65;;
58874;SDS011;44652;49.040;12.126;2024-02-21T14:27:59;5.30;;;0.80;;
58874;SDS011;44652;49.040;12.126;2024-02-21T14:30:27;1.98;;;0.98;;
58874;SDS011;44652;49.040;12.126;2024-02-21T14:32:54;6.95;;;1.20;;
58874;SDS011;44652;49.040;12.126;2024-02-21T14:35:21;0.77;;;0.50;;
58874;SDS011;44652;49.040;12.126;2024-02-21T14:37:47;1.13;;;0.50;;
58874;SDS011;44652;49.040;12.126;2024-02-21T14:40:15;1.92;;;0.93;;
58874;SDS011;44652;49.040;12.126;2024-02-21T14:42:42;9.18;;;2.88;;
58874;SDS011;44652;49.040;12.126;2024-02-21T14:45:09;1.73;;;0.85;;
58874;SDS011;44652;49.040;12.126;2024-02-21T14:47:39;1.80;;;0.70;;
58874;SDS011;44652;49.040;12.126;2024-02-21T14:50:08;2.40;;;1.05;;
58874;SDS011;44652;49.040;12.126;2024-02-21T14:52:36;1.60;;;0.63;;
58874;SDS011;44652;49.040;12.126;2024-02-21T14:55:03;2.22;;;0.82;;
58874;SDS011;44652;49.040;12.126;2024-02-21T14:57:31;1.42;;;0.55;;
58874;SDS011;44652;49.040;12.126;2024-02-21T14:59:58;2.38;;;0.88;;
58874;SDS011;44652;49.040;12.126;2024-02-21T15:02:26;2.20;;;1.00;;
58874;SDS011;44652;49.040;12.126;2024-02-21T15:04:54;3.67;;;0.85;;
58874;SDS011;44652;49.040;12.126;2024-02-21T15:07:24;3.17;;;0.70;;
58874;SDS011;44652;49.040;12.126;2024-02-21T15:09:52;3.03;;;0.88;;
58874;SDS011;44652;49.040;12.126;2024-02-21T15:12:19;1.65;;;0.75;;
58874;SDS011;44652;49.040;12.126;2024-02-21T15:14:45;1.35;;;0.85;;
58874;SDS011;44652;49.040;12.126;2024-02-21T15:17:12;0.70;;;0.52;;
58874;SDS011;44652;49.040;12.126;2024-02-21T15:19:39;2.08;;;0.93;;
58874;SDS011;44652;49.040;12.126;2024-02-21T15:22:10;1.40;;;0.70;;
58874;SDS011;44652;49.040;12.126;2024-02-21T15:24:40;2.47;;;0.80;;
58874;SDS011;44652;49.040;12.126;2024-02-21T15:27:07;1.75;;;0.70;;
58874;SDS011;44652;49.040;12.126;2024-02-21T15:29:35;1.23;;;0.60;;
58874;SDS011;44652;49.040;12.126;2024-02-21T15:32:04;8.23;;;1.15;;
58874;SDS011;44652;49.040;12.126;2024-02-21T15:34:32;3.03;;;0.53;;
58874;SDS011;44652;49.040;12.126;2024-02-21T15:36:59;2.13;;;0.60;;
58874;SDS011;44652;49.040;12.126;2024-02-21T15:39:26;2.95;;;1.73;;
58874;SDS011;44652;49.040;12.126;2024-02-21T15:41:56;1.98;;;1.10;;
58874;SDS011;44652;49.040;12.126;2024-02-21T15:44:23;3.08;;;1.10;;
58874;SDS011;44652;49.040;12.126;2024-02-21T15:46:51;1.70;;;0.80;;
58874;SDS011;44652;49.040;12.126;2024-02-21T15:49:20;2.22;;;0.88;;
58874;SDS011;44652;49.040;12.126;2024-02-21T15:51:47;2.55;;;0.70;;
58874;SDS011;44652;49.040;12.126;2024-02-21T15:54:14;2.08;;;0.52;;
58874;SDS011;44652;49.040;12.126;2024-02-21T15:56:49;2.63;;;0.90;;
58874;SDS011;44652;49.040;12.126;2024-02-21T15:59:16;1.02;;;0.50;;
58874;SDS011;44652;49.040;12.126;2024-02-21T16:01:43;6.72;;;0.93;;
58874;SDS011;44652;49.040;12.126;2024-02-21T16:04:10;0.80;;;0.52;;
58874;SDS011;44652;49.040;12.126;2024-02-21T16:06:37;2.75;;;0.85;;
58874;SDS011;44652;49.040;12.126;2024-02-21T16:09:04;1.80;;;0.55;;
58874;SDS011;44652;49.040;12.126;2024-02-21T16:11:35;0.95;;;0.60;;
58874;SDS011;44652;49.040;12.126;2024-02-21T16:14:02;1.75;;;0.85;;
58874;SDS011;44652;49.040;12.126;2024-02-21T16:16:29;3.25;;;1.20;;
58874;SDS011;44652;49.040;12.126;2024-02-21T16:18:57;5.65;;;1.25;;
58874;SDS011;44652;49.040;12.126;2024-02-21T16:21:24;4.30;;;1.13;;
58874;SDS011;44652;49.040;12.126;2024-02-21T16:23:51;3.38;;;1.70;;
58874;SDS011;44652;49.040;12.126;2024-02-21T16:26:17;3.65;;;1.55;;
58874;SDS011;44652;49.040;12.126;2024-02-21T16:28:44;4.32;;;1.35;;
58874;SDS011;44652;49.040;12.126;2024-02-21T16:31:11;4.90;;;1.42;;
58874;SDS011;44652;49.040;12.126;2024-02-21T16:33:38;5.03;;;1.20;;
58874;SDS011;44652;49.040;12.126;2024-02-21T16:36:05;4.13;;;1.50;;
58874;SDS011;44652;49.040;12.126;2024-02-21T16:41:04;2.83;;;1.38;;
58874;SDS011;44652;49.040;12.126;2024-02-21T16:43:30;3.28;;;1.27;;
58874;SDS011;44652;49.040;12.126;2024-02-21T16:45:57;2.55;;;1.20;;
58874;SDS011;44652;49.040;12.126;2024-02-21T16:48:24;2.75;;;1.05;;
58874;SDS011;44652;49.040;12.126;2024-02-21T16:50:51;2.33;;;1.27;;
58874;SDS011;44652;49.040;12.126;2024-02-21T16:53:26;3.50;;;2.00;;
58874;SDS011;44652;49.040;12.126;2024-02-21T16:55:52;5.43;;;1.67;;
58874;SDS011;44652;49.040;12.126;2024-02-21T16:58:19;3.75;;;2.03;;
58874;SDS011;44652;49.040;12.126;2024-02-21T17:00:46;5.45;;;2.42;;
58874;SDS011;44652;49.040;12.126;2024-02-21T17:03:14;5.13;;;2.45;;
58874;SDS011;44652;49.040;12.126;2024-02-21T17:05:47;5.30;;;1.92;;
58874;SDS011;44652;49.040;12.126;2024-02-21T17:08:23;3.97;;;1.80;;
58874;SDS011;44652;49.040;12.126;2024-02-21T17:10:50;5.73;;;3.23;;
58874;SDS011;44652;49.040;12.126;2024-02-21T17:13:18;4.43;;;1.60;;
58874;SDS011;44652;49.040;12.126;2024-02-21T17:15:46;6.30;;;2.10;;
58874;SDS011;44652;49.040;12.126;2024-02-21T17:18:14;4.18;;;1.92;;
58874;SDS011;44652;49.040;12.126;2024-02-21T17:20:41;7.03;;;2.10;;
58874;SDS011;44652;49.040;12.126;2024-02-21T17:23:07;4.45;;;2.13;;
58874;SDS011;44652;49.040;12.126;2024-02-21T17:25:34;7.47;;;2.42;;
58874;SDS011;44652;49.040;12.126;2024-02-21T17:28:01;5.63;;;2.28;;
58874;SDS011;44652;49.040;12.126;2024-02-21T17:30:28;7.22;;;1.90;;
58874;SDS011;44652;49.040;12.126;2024-02-21T17:32:55;4.85;;;2.67;;
58874;SDS011;44652;49.040;12.126;2024-02-21T17:35:22;5.43;;;2.30;;
58874;SDS011;44652;49.040;12.126;2024-02-21T17:37:49;8.38;;;3.10;;
58874;SDS011;44652;49.040;12.126;2024-02-21T17:40:16;8.13;;;3.63;;
58874;SDS011;44652;49.040;12.126;2024-02-21T17:42:43;6.50;;;1.92;;
58874;SDS011;44652;49.040;12.126;2024-02-21T17:45:09;10.45;;;2.22;;
58874;SDS011;44652;49.040;12.126;2024-02-21T17:47:36;4.95;;;2.10;;
58874;SDS011;44652;49.040;12.126;2024-02-21T17:50:03;3.67;;;2.03;;
58874;SDS011;44652;49.040;12.126;2024-02-21T17:52:30;10.98;;;2.65;;
58874;SDS011;44652;49.040;12.126;2024-02-21T17:54:57;5.88;;;3.05;;
58874;SDS011;44652;49.040;12.126;2024-02-21T17:57:26;8.07;;;3.03;;
58874;SDS011;44652;49.040;12.126;2024-02-21T17:59:52;6.60;;;2.47;;
58874;SDS011;44652;49.040;12.126;2024-02-21T18:02:20;3.58;;;1.80;;
58874;SDS011;44652;49.040;12.126;2024-02-21T18:04:50;4.00;;;1.77;;
58874;SDS011;44652;49.040;12.126;2024-02-21T18:07:18;3.43;;;1.63;;
58874;SDS011;44652;49.040;12.126;2024-02-21T18:09:48;4.32;;;1.58;;
58874;SDS011;44652;49.040;12.126;2024-02-21T18:12:17;2.53;;;1.17;;
58874;SDS011;44652;49.040;12.126;2024-02-21T18:14:44;1.83;;;1.00;;
58874;SDS011;44652;49.040;12.126;2024-02-21T18:17:11;2.75;;;1.25;;
58874;SDS011;44652;49.040;12.126;2024-02-21T18:19:38;2.20;;;1.17;;
58874;SDS011;44652;49.040;12.126;2024-02-21T18:22:04;6.88;;;1.63;;
58874;SDS011;44652;49.040;12.126;2024-02-21T18:24:31;4.50;;;1.75;;
58874;SDS011;44652;49.040;12.126;2024-02-21T18:26:58;4.82;;;1.90;;
58874;SDS011;44652;49.040;12.126;2024-02-21T18:29:25;3.50;;;1.35;;
58874;SDS011;44652;49.040;12.126;2024-02-21T18:32:05;6.65;;;1.42;;
58874;SDS011;44652;49.040;12.126;2024-02-21T18:34:35;5.78;;;1.30;;
58874;SDS011;44652;49.040;12.126;2024-02-21T18:37:02;2.92;;;1.35;;
58874;SDS011;44652;49.040;12.126;2024-02-21T18:39:30;9.60;;;1.88;;
58874;SDS011;44652;49.040;12.126;2024-02-21T18:41:57;2.80;;;1.65;;
58874;SDS011;44652;49.040;12.126;2024-02-21T18:44:24;7.80;;;2.05;;
58874;SDS011;44652;49.040;12.126;2024-02-21T18:46:51;4.50;;;1.75;;
58874;SDS011;44652;49.040;12.126;2024-02-21T18:49:18;5.72;;;2.05;;
58874;SDS011;44652;49.040;12.126;2024-02-21T18:51:45;4.18;;;1.60;;
58874;SDS011;44652;49.040;12.126;2024-02-21T18:54:12;8.13;;;2.33;;
58874;SDS011;44652;49.040;12.126;2024-02-21T18:56:43;19.60;;;7.78;;
58874;SDS011;44652;49.040;12.126;2024-02-21T18:59:11;11.13;;;6.03;;
58874;SDS011;44652;49.040;12.126;2024-02-21T19:01:38;5.80;;;3.58;;
58874;SDS011;44652;49.040;12.126;2024-02-21T19:04:04;8.43;;;2.67;;
58874;SDS011;44652;49.040;12.126;2024-02-21T19:06:31;17.13;;;9.07;;
58874;SDS011;44652;49.040;12.126;2024-02-21T19:08:58;8.65;;;4.20;;
58874;SDS011;44652;49.040;12.126;2024-02-21T19:11:25;6.80;;;2.35;;
58874;SDS011;44652;49.040;12.126;2024-02-21T19:13:52;4.03;;;1.60;;
58874;SDS011;44652;49.040;12.126;2024-02-21T19:16:19;6.85;;;2.65;;
58874;SDS011;44652;49.040;12.126;2024-02-21T19:18:46;7.00;;;4.10;;
58874;SDS011;44652;49.040;12.126;2024-02-21T19:21:14;8.90;;;3.50;;
58874;SDS011;44652;49.040;12.126;2024-02-21T19:23:40;9.07;;;4.88;;
58874;SDS011;44652;49.040;12.126;2024-02-21T19:26:08;4.75;;;2.20;;
58874;SDS011;44652;49.040;12.126;2024-02-21T19:28:35;2.92;;;1.67;;
58874;SDS011;44652;49.040;12.126;2024-02-21T19:31:03;7.65;;;2.85;;
58874;SDS011;44652;49.040;12.126;2024-02-21T19:33:30;7.57;;;3.22;;
58874;SDS011;44652;49.040;12.126;2024-02-21T19:35:56;6.88;;;2.72;;
58874;SDS011;44652;49.040;12.126;2024-02-21T19:38:23;4.28;;;2.65;;
58874;SDS011;44652;49.040;12.126;2024-02-21T19:43:18;6.68;;;3.70;;
58874;SDS011;44652;49.040;12.126;2024-02-21T19:45:46;21.40;;;7.78;;
58874;SDS011;44652;49.040;12.126;2024-02-21T19:48:13;8.98;;;2.90;;
58874;SDS011;44652;49.040;12.126;2024-02-21T19:50:40;3.72;;;2.53;;
58874;SDS011;44652;49.040;12.126;2024-02-21T19:53:07;4.43;;;2.40;;
58874;SDS011;44652;49.040;12.126;2024-02-21T19:55:34;5.90;;;2.35;;
58874;SDS011;44652;49.040;12.126;2024-02-21T19:58:01;6.13;;;3.00;;
58874;SDS011;44652;49.040;12.126;2024-02-21T20:00:29;12.10;;;2.65;;
58874;SDS011;44652;49.040;12.126;2024-02-21T20:02:56;6.50;;;2.28;;
58874;SDS011;44652;49.040;12.126;2024-02-21T20:05:23;5.32;;;3.10;;
58874;SDS011;44652;49.040;12.126;2024-02-21T20:07:51;6.07;;;2.60;;
58874;SDS011;44652;49.040;12.126;2024-02-21T20:10:18;5.70;;;3.70;;
58874;SDS011;44652;49.040;12.126;2024-02-21T20:12:46;3.05;;;1.70;;
58874;SDS011;44652;49.040;12.126;2024-02-21T20:15:14;4.63;;;2.30;;
58874;SDS011;44652;49.040;12.126;2024-02-21T20:17:41;6.25;;;2.95;;
58874;SDS011;44652;49.040;12.126;2024-02-21T20:20:12;3.92;;;2.35;;
58874;SDS011;44652;49.040;12.126;2024-02-21T20:22:40;9.18;;;3.05;;
58874;SDS011;44652;49.040;12.126;2024-02-21T20:25:10;3.58;;;1.92;;
58874;SDS011;44652;49.040;12.126;2024-02-21T20:27:37;5.10;;;1.77;;
58874;SDS011;44652;49.040;12.126;2024-02-21T20:30:04;5.75;;;2.22;;
58874;SDS011;44652;49.040;12.126;2024-02-21T20:32:32;2.83;;;1.30;;
58874;SDS011;44652;49.040;12.126;2024-02-21T20:34:59;2.88;;;1.70;;
58874;SDS011;44652;49.040;12.126;2024-02-21T20:37:26;3.80;;;1.40;;
58874;SDS011;44652;49.040;12.126;2024-02-21T20:39:53;3.05;;;1.50;;
58874;SDS011;44652;49.040;12.126;2024-02-21T20:42:20;3.20;;;1.77;;
58874;SDS011;44652;49.040;12.126;2024-02-21T20:44:50;3.53;;;1.88;;
58874;SDS011;44652;49.040;12.126;2024-02-21T20:47:17;4.65;;;1.65;;
58874;SDS011;44652;49.040;12.126;2024-02-21T20:49:46;3.53;;;1.60;;
58874;SDS011;44652;49.040;12.126;2024-02-21T20:52:15;7.03;;;1.58;;
58874;SDS011;44652;49.040;12.126;2024-02-21T20:54:42;3.55;;;1.52;;
58874;SDS011;44652;49.040;12.126;2024-02-21T20:57:08;2.65;;;1.23;;
58874;SDS011;44652;49.040;12.126;2024-02-21T20:59:37;4.97;;;2.53;;
58874;SDS011;44652;49.040;12.126;2024-02-21T21:02:04;3.50;;;1.40;;
58874;SDS011;44652;49.040;12.126;2024-02-21T21:04:31;3.42;;;1.95;;